createdAt,value
2023-01-09T00:01:29.048Z,6.90
2023-01-09T00:03:57.650Z,6.60
2023-01-09T00:06:25.729Z,6.50
2023-01-09T00:08:53.792Z,6.40
2023-01-09T00:11:22.635Z,6.30
2023-01-09T00:13:50.910Z,6.10
2023-01-09T00:16:19.628Z,6.00
2023-01-09T00:18:49.357Z,6.00
2023-01-09T00:21:17.495Z,6.00
2023-01-09T00:23:45.870Z,6.00
2023-01-09T00:26:17.029Z,5.90
2023-01-09T00:28:46.148Z,5.90
2023-01-09T00:31:14.552Z,5.80
2023-01-09T00:33:43.859Z,6.00
2023-01-09T00:36:13.772Z,6.10
2023-01-09T00:38:42.122Z,6.20
2023-01-09T00:41:12.962Z,6.20
2023-01-09T00:43:43.419Z,6.30
2023-01-09T00:46:12.630Z,6.30
2023-01-09T00:48:41.963Z,6.20
2023-01-09T00:51:10.421Z,6.00
2023-01-09T00:53:40.481Z,6.10
2023-01-09T00:56:11.442Z,6.10
2023-01-09T00:58:39.626Z,6.10
2023-01-09T01:01:07.897Z,6.10
2023-01-09T01:03:36.234Z,6.10
2023-01-09T01:06:22.552Z,6.00
2023-01-09T01:08:52.109Z,6.00
2023-01-09T01:11:20.483Z,6.00
2023-01-09T01:13:48.638Z,5.90
2023-01-09T01:16:18.566Z,5.90
2023-01-09T01:18:47.056Z,5.90
2023-01-09T01:21:16.100Z,6.00
2023-01-09T01:23:44.623Z,6.10
2023-01-09T01:26:15.031Z,6.20
2023-01-09T01:28:43.552Z,6.30
2023-01-09T01:31:16.970Z,6.30
2023-01-09T01:33:45.353Z,6.40
2023-01-09T01:36:16.406Z,6.50
2023-01-09T01:38:44.602Z,6.60
2023-01-09T01:41:14.212Z,6.70
2023-01-09T01:43:52.043Z,6.70
2023-01-09T01:46:20.223Z,6.60
2023-01-09T01:48:49.288Z,6.60
2023-01-09T01:51:18.297Z,6.60
2023-01-09T01:53:49.385Z,6.60
2023-01-09T01:56:20.386Z,6.50
2023-01-09T01:58:50.570Z,6.50
2023-01-09T02:01:19.121Z,6.60
2023-01-09T02:03:47.716Z,6.60
2023-01-09T02:06:16.162Z,6.60
2023-01-09T02:08:44.911Z,6.60
2023-01-09T02:11:14.442Z,6.60
2023-01-09T02:13:44.364Z,6.60
2023-01-09T02:16:18.726Z,6.70
2023-01-09T02:18:51.352Z,6.70
2023-01-09T02:21:34.950Z,6.60
2023-01-09T02:24:08.853Z,6.50
2023-01-09T02:26:48.918Z,6.50
2023-01-09T02:29:39.819Z,6.40
2023-01-09T02:32:12.518Z,6.20
2023-01-09T02:34:45.364Z,6.10
2023-01-09T02:37:18.018Z,6.00
2023-01-09T02:39:51.347Z,6.10
2023-01-09T02:42:22.158Z,6.10
2023-01-09T02:44:51.281Z,6.00
2023-01-09T02:47:40.985Z,5.90
2023-01-09T02:50:11.431Z,5.70
2023-01-09T02:52:49.585Z,5.60
2023-01-09T02:55:22.962Z,5.50
2023-01-09T02:57:55.410Z,5.50
2023-01-09T03:00:30.290Z,5.50
2023-01-09T03:03:04.652Z,5.50
2023-01-09T03:05:36.408Z,5.70
2023-01-09T03:08:05.461Z,5.80
2023-01-09T03:10:36.897Z,5.80
2023-01-09T03:13:05.674Z,5.60
2023-01-09T03:15:35.351Z,5.50
2023-01-09T03:18:05.305Z,5.40
2023-01-09T03:20:33.559Z,5.40
2023-01-09T03:23:02.835Z,5.40
2023-01-09T03:25:31.549Z,5.50
2023-01-09T03:28:01.625Z,5.50
2023-01-09T03:30:30.681Z,5.50
2023-01-09T03:32:59.623Z,5.50
2023-01-09T03:35:29.296Z,5.50
2023-01-09T03:37:59.040Z,5.50
2023-01-09T03:40:27.087Z,5.40
2023-01-09T03:42:55.356Z,5.50
2023-01-09T03:45:23.943Z,5.40
2023-01-09T03:47:53.103Z,5.40
2023-01-09T03:50:21.707Z,5.50
2023-01-09T03:52:51.286Z,5.50
2023-01-09T03:55:19.873Z,5.60
2023-01-09T03:57:47.918Z,5.50
2023-01-09T04:00:16.753Z,5.60
2023-01-09T04:02:44.829Z,5.60
2023-01-09T04:05:13.514Z,5.60
2023-01-09T04:07:41.552Z,5.60
2023-01-09T04:10:12.376Z,5.60
2023-01-09T04:12:40.462Z,5.50
2023-01-09T04:15:08.775Z,5.50
2023-01-09T04:17:37.215Z,5.50
2023-01-09T04:20:05.660Z,5.60
2023-01-09T04:22:34.392Z,5.70
2023-01-09T04:25:02.429Z,5.80
2023-01-09T04:27:32.571Z,5.90
2023-01-09T04:30:00.623Z,6.00
2023-01-09T04:32:29.268Z,6.10
2023-01-09T04:34:57.372Z,6.30
2023-01-09T04:37:25.911Z,6.30
2023-01-09T04:39:55.986Z,6.30
2023-01-09T04:42:25.062Z,6.50
2023-01-09T04:44:54.421Z,6.50
2023-01-09T04:47:23.711Z,6.60
2023-01-09T04:49:52.336Z,6.70
2023-01-09T04:52:20.374Z,6.80
2023-01-09T04:54:49.058Z,6.80
2023-01-09T04:57:17.126Z,6.90
2023-01-09T04:59:45.666Z,6.90
2023-01-09T05:02:15.178Z,7.00
2023-01-09T05:04:43.649Z,7.00
2023-01-09T05:07:12.299Z,7.10
2023-01-09T05:09:40.386Z,7.10
2023-01-09T05:12:08.852Z,7.20
2023-01-09T05:14:36.863Z,7.20
2023-01-09T05:17:05.358Z,7.30
2023-01-09T05:19:35.317Z,7.30
2023-01-09T05:22:03.865Z,7.40
2023-01-09T05:24:31.944Z,7.40
2023-01-09T05:27:02.886Z,7.50
2023-01-09T05:29:31.002Z,7.50
2023-01-09T05:31:59.275Z,7.50
2023-01-09T05:34:27.309Z,7.50
2023-01-09T05:36:57.029Z,7.50
2023-01-09T05:39:25.209Z,7.50
2023-01-09T05:41:53.924Z,7.50
2023-01-09T05:44:21.957Z,7.50
2023-01-09T05:46:49.972Z,7.40
2023-01-09T05:49:18.465Z,7.50
2023-01-09T05:51:46.487Z,7.40
2023-01-09T05:54:16.577Z,7.40
2023-01-09T05:56:44.662Z,7.40
2023-01-09T05:59:13.258Z,7.40
2023-01-09T06:01:41.319Z,7.30
2023-01-09T06:04:09.942Z,7.30
2023-01-09T06:06:38.136Z,7.30
2023-01-09T06:09:06.185Z,7.30
2023-01-09T06:11:38.224Z,7.30
2023-01-09T06:14:07.047Z,7.30
2023-01-09T06:16:35.139Z,7.30
2023-01-09T06:19:03.359Z,7.30
2023-01-09T06:21:32.121Z,7.30
2023-01-09T06:24:00.555Z,7.30
2023-01-09T06:26:29.308Z,7.30
2023-01-09T06:29:00.813Z,7.30
2023-01-09T06:31:29.394Z,7.30
2023-01-09T06:33:57.496Z,7.30
2023-01-09T06:36:26.323Z,7.20
2023-01-09T06:38:54.379Z,7.10
2023-01-09T06:41:22.883Z,7.10
2023-01-09T06:43:50.897Z,7.10
2023-01-09T06:46:21.058Z,7.00
2023-01-09T06:48:49.260Z,7.00
2023-01-09T06:51:17.234Z,7.00
2023-01-09T06:53:45.905Z,7.00
2023-01-09T06:56:14.203Z,7.00
2023-01-09T06:58:42.479Z,6.90
2023-01-09T07:01:10.836Z,6.90
2023-01-09T07:03:40.547Z,6.90
2023-01-09T07:06:08.633Z,6.90
2023-01-09T07:08:37.444Z,6.80
2023-01-09T07:11:05.814Z,6.90
2023-01-09T07:13:34.210Z,6.90
2023-01-09T07:16:03.628Z,6.80
2023-01-09T07:18:31.787Z,6.80
2023-01-09T07:21:01.746Z,6.80
2023-01-09T07:23:29.816Z,6.80
2023-01-09T07:25:58.750Z,6.80
2023-01-09T07:28:26.866Z,6.80
2023-01-09T07:30:55.564Z,6.80
2023-01-09T07:33:23.882Z,6.70
2023-01-09T07:35:52.193Z,6.70
2023-01-09T07:38:22.156Z,6.60
2023-01-09T07:40:50.906Z,6.60
2023-01-09T07:43:18.999Z,6.60
2023-01-09T07:45:47.588Z,6.60
2023-01-09T07:48:15.706Z,6.60
2023-01-09T07:50:44.107Z,6.40
2023-01-09T07:53:12.202Z,6.30
2023-01-09T07:55:43.439Z,6.30
2023-01-09T07:58:11.545Z,6.20
2023-01-09T08:00:39.612Z,6.20
2023-01-09T08:03:08.310Z,6.10
2023-01-09T08:05:36.499Z,6.00
2023-01-09T08:08:04.871Z,6.10
2023-01-09T08:10:32.913Z,6.10
2023-01-09T08:13:02.353Z,6.00
2023-01-09T08:15:31.185Z,6.00
2023-01-09T08:17:59.217Z,5.90
2023-01-09T08:20:28.379Z,5.90
2023-01-09T08:22:56.825Z,5.90
2023-01-09T08:25:25.426Z,5.90
2023-01-09T08:27:53.609Z,5.90
2023-01-09T08:30:23.532Z,5.80
2023-01-09T08:32:52.166Z,5.80
2023-01-09T08:35:20.817Z,5.80
2023-01-09T08:37:50.014Z,5.80
2023-01-09T08:40:19.364Z,5.80
2023-01-09T08:43:04.976Z,5.80
2023-01-09T08:45:53.314Z,5.80
2023-01-09T08:48:21.336Z,5.80
2023-01-09T08:50:49.449Z,5.90
2023-01-09T08:53:17.612Z,5.90
2023-01-09T08:55:45.602Z,6.00
2023-01-09T08:58:14.240Z,6.00
2023-01-09T09:00:43.703Z,6.10
2023-01-09T09:03:12.681Z,6.10
2023-01-09T09:05:45.033Z,6.10
2023-01-09T09:08:16.090Z,6.20
2023-01-09T09:10:44.286Z,6.20
2023-01-09T09:13:12.338Z,6.20
2023-01-09T09:15:40.424Z,6.30
2023-01-09T09:18:10.356Z,6.30
2023-01-09T09:20:39.752Z,6.30
2023-01-09T09:23:08.921Z,6.40
2023-01-09T09:25:38.380Z,6.40
2023-01-09T09:28:07.049Z,6.40
2023-01-09T09:30:35.197Z,6.40
2023-01-09T09:33:03.877Z,6.50
2023-01-09T09:35:34.322Z,6.40
2023-01-09T09:38:05.360Z,6.40
2023-01-09T09:40:59.584Z,6.40
2023-01-09T09:44:01.605Z,6.40
2023-01-09T09:46:35.027Z,6.40
2023-01-09T09:49:07.464Z,6.40
2023-01-09T09:51:42.978Z,6.30
2023-01-09T09:54:14.114Z,6.40
2023-01-09T09:56:46.944Z,6.30
2023-01-09T09:59:18.470Z,6.30
2023-01-09T10:01:52.040Z,6.30
2023-01-09T10:04:21.265Z,6.40
2023-01-09T10:06:52.587Z,6.40
2023-01-09T10:09:25.874Z,6.40
2023-01-09T10:11:56.911Z,6.40
2023-01-09T10:14:25.157Z,6.40
2023-01-09T10:17:04.606Z,6.40
2023-01-09T10:19:38.261Z,6.50
2023-01-09T10:22:15.742Z,6.50
2023-01-09T10:24:56.162Z,6.50
2023-01-09T10:27:30.028Z,6.50
2023-01-09T10:30:04.115Z,6.60
2023-01-09T10:32:50.084Z,6.60
2023-01-09T10:35:39.306Z,6.70
2023-01-09T10:38:14.796Z,6.70
2023-01-09T10:40:45.108Z,6.70
2023-01-09T10:43:15.777Z,6.70
2023-01-09T10:45:50.547Z,6.80
2023-01-09T10:48:25.143Z,6.90
2023-01-09T10:50:55.716Z,6.80
2023-01-09T10:53:27.948Z,6.80
2023-01-09T10:55:57.069Z,6.80
2023-01-09T10:58:25.834Z,6.80
2023-01-09T11:00:56.173Z,6.90
2023-01-09T11:03:25.190Z,6.90
2023-01-09T11:05:55.011Z,6.90
2023-01-09T11:08:27.704Z,6.80
2023-01-09T11:10:56.597Z,6.80
2023-01-09T11:13:25.839Z,6.80
2023-01-09T11:16:00.968Z,6.80
2023-01-09T11:18:29.064Z,6.90
2023-01-09T11:20:57.609Z,6.90
2023-01-09T11:23:28.957Z,6.90
2023-01-09T11:25:59.078Z,7.00
2023-01-09T11:28:27.278Z,7.00
2023-01-09T11:30:59.960Z,7.00
2023-01-09T11:33:29.514Z,7.00
2023-01-09T11:36:00.385Z,7.00
2023-01-09T11:38:30.241Z,6.90
2023-01-09T11:40:59.888Z,6.90
2023-01-09T11:43:33.111Z,7.00
2023-01-09T11:46:07.135Z,7.10
2023-01-09T11:48:37.658Z,7.10
2023-01-09T11:51:07.307Z,7.10
2023-01-09T11:53:46.881Z,7.10
2023-01-09T11:56:16.004Z,7.10
2023-01-09T11:58:44.558Z,7.20
2023-01-09T12:01:23.787Z,7.30
2023-01-09T12:04:12.905Z,7.30
2023-01-09T12:06:47.472Z,7.20
2023-01-09T12:09:21.605Z,7.30
2023-01-09T12:11:51.797Z,7.30
2023-01-09T12:14:24.859Z,7.30
2023-01-09T12:17:14.077Z,7.30
2023-01-09T12:19:51.194Z,7.40
2023-01-09T12:22:23.855Z,7.40
2023-01-09T12:25:06.004Z,7.50
2023-01-09T12:27:40.720Z,7.40
2023-01-09T12:30:19.191Z,7.50
2023-01-09T12:32:53.905Z,7.50
2023-01-09T12:35:29.788Z,7.60
2023-01-09T12:38:05.310Z,7.50
2023-01-09T12:40:41.668Z,7.50
2023-01-09T12:43:12.647Z,7.50
2023-01-09T12:45:48.335Z,7.50
2023-01-09T12:48:21.823Z,7.60
2023-01-09T12:51:03.965Z,7.60
2023-01-09T12:53:35.954Z,7.60
2023-01-09T12:56:10.080Z,7.60
2023-01-09T12:58:42.479Z,7.50
2023-01-09T13:01:15.352Z,7.50
2023-01-09T13:03:46.495Z,7.60
2023-01-09T13:06:19.233Z,7.60
2023-01-09T13:08:49.306Z,7.60
2023-01-09T13:11:23.503Z,7.60
2023-01-09T13:13:54.028Z,7.60
2023-01-09T13:16:24.886Z,7.60
2023-01-09T13:18:56.889Z,7.70
2023-01-09T13:21:26.572Z,7.60
2023-01-09T13:23:58.603Z,7.60
2023-01-09T13:26:30.682Z,7.60
2023-01-09T13:29:03.093Z,7.60
2023-01-09T13:31:44.222Z,7.70
2023-01-09T13:34:21.556Z,7.60
2023-01-09T13:36:52.260Z,7.60
2023-01-09T13:39:21.574Z,7.50
2023-01-09T13:42:11.456Z,7.40
2023-01-09T13:44:39.623Z,7.50
2023-01-09T13:47:18.414Z,7.50
2023-01-09T13:50:01.084Z,7.60
2023-01-09T13:52:33.308Z,7.50
2023-01-09T13:55:25.444Z,7.50
2023-01-09T13:58:15.280Z,7.50
2023-01-09T14:00:50.309Z,7.50
2023-01-09T14:03:38.086Z,7.50
2023-01-09T14:06:14.025Z,7.50
2023-01-09T14:08:43.603Z,7.50
2023-01-09T14:11:18.940Z,7.50
2023-01-09T14:13:48.044Z,7.50
2023-01-09T14:16:20.412Z,7.50
2023-01-09T14:18:50.424Z,7.50
2023-01-09T14:21:19.084Z,7.60
2023-01-09T14:23:53.336Z,7.60
2023-01-09T14:26:23.357Z,7.50
2023-01-09T14:28:54.725Z,7.50
2023-01-09T14:31:30.888Z,7.50
2023-01-09T14:34:30.572Z,7.50
2023-01-09T14:37:00.634Z,7.50
2023-01-09T14:39:31.169Z,7.50
2023-01-09T14:42:05.806Z,7.50
2023-01-09T14:44:46.448Z,7.40
2023-01-09T14:47:19.917Z,7.30
2023-01-09T14:49:53.113Z,7.40
2023-01-09T14:52:23.582Z,7.40
2023-01-09T14:54:52.657Z,7.30
2023-01-09T14:57:25.537Z,7.30
2023-01-09T15:00:00.794Z,7.40
2023-01-09T15:02:32.679Z,7.40
2023-01-09T15:05:02.262Z,7.40
2023-01-09T15:07:35.020Z,7.30
2023-01-09T15:10:04.174Z,7.30
2023-01-09T15:12:34.882Z,7.30
2023-01-09T15:15:04.957Z,7.20
2023-01-09T15:17:36.270Z,7.10
2023-01-09T15:20:06.087Z,7.10
2023-01-09T15:22:36.723Z,7.10
2023-01-09T15:25:18.160Z,7.10
2023-01-09T15:27:48.256Z,7.10
2023-01-09T15:30:17.644Z,7.20
2023-01-09T15:32:48.936Z,7.20
2023-01-09T15:35:17.162Z,7.20
2023-01-09T15:37:45.782Z,7.20
2023-01-09T15:40:22.044Z,7.20
2023-01-09T15:42:58.395Z,7.20
2023-01-09T15:45:28.311Z,7.10
2023-01-09T15:48:16.315Z,7.20
2023-01-09T15:50:44.743Z,7.10
2023-01-09T15:53:14.619Z,7.10
2023-01-09T15:55:42.812Z,7.10
2023-01-09T15:58:26.544Z,7.10
2023-01-09T16:00:55.803Z,7.20
2023-01-09T16:03:25.883Z,7.10
2023-01-09T16:05:58.086Z,7.10
2023-01-09T16:08:29.305Z,7.10
2023-01-09T16:10:59.161Z,7.10
2023-01-09T16:13:28.878Z,7.10
2023-01-09T16:15:59.178Z,7.00
2023-01-09T16:18:33.093Z,7.00
2023-01-09T16:21:05.916Z,7.00
2023-01-09T16:23:35.160Z,7.00
2023-01-09T16:26:05.755Z,7.00
2023-01-09T16:28:33.806Z,6.90
2023-01-09T16:31:02.936Z,6.90
2023-01-09T16:33:32.643Z,6.90
2023-01-09T16:36:00.933Z,6.80
2023-01-09T16:38:30.987Z,6.80
2023-01-09T16:41:17.076Z,6.70
2023-01-09T16:43:45.377Z,6.70
2023-01-09T16:46:14.209Z,6.70
2023-01-09T16:48:44.222Z,6.70
2023-01-09T16:51:14.881Z,6.70
2023-01-09T16:53:43.264Z,6.70
2023-01-09T16:56:14.760Z,6.70
2023-01-09T16:58:43.370Z,6.60
2023-01-09T17:01:13.527Z,6.60
2023-01-09T17:03:43.804Z,6.60
2023-01-09T17:06:17.235Z,6.60
2023-01-09T17:08:47.041Z,6.50
2023-01-09T17:11:20.022Z,6.50
2023-01-09T17:13:48.976Z,6.50
2023-01-09T17:16:17.712Z,6.50
2023-01-09T17:18:46.428Z,6.40
2023-01-09T17:21:20.731Z,6.50
2023-01-09T17:24:09.508Z,6.40
2023-01-09T17:26:55.740Z,6.40
2023-01-09T17:29:24.530Z,6.40
2023-01-09T17:31:52.611Z,6.50
2023-01-09T17:34:20.812Z,6.50
2023-01-09T17:36:50.756Z,6.40
2023-01-09T17:39:18.944Z,6.40
2023-01-09T17:41:47.374Z,6.30
2023-01-09T17:44:15.527Z,6.30
2023-01-09T17:46:45.272Z,6.30
2023-01-09T17:49:16.221Z,6.30
2023-01-09T17:51:45.027Z,6.30
2023-01-09T17:54:14.479Z,6.30
2023-01-09T17:56:44.579Z,6.30
2023-01-09T17:59:13.323Z,6.30
2023-01-09T18:01:41.876Z,6.20
2023-01-09T18:04:10.544Z,6.20
2023-01-09T18:06:38.924Z,6.20
2023-01-09T18:09:08.023Z,6.20
2023-01-09T18:11:37.453Z,6.20
2023-01-09T18:14:06.762Z,6.20
2023-01-09T18:16:35.070Z,6.20
2023-01-09T18:19:10.061Z,6.10
2023-01-09T18:21:38.441Z,6.00
2023-01-09T18:24:07.092Z,6.00
2023-01-09T18:26:36.732Z,6.00
2023-01-09T18:29:05.111Z,5.90
2023-01-09T18:31:33.518Z,5.90
2023-01-09T18:34:05.306Z,5.90
2023-01-09T18:36:34.313Z,5.90
2023-01-09T18:39:03.632Z,5.90
2023-01-09T18:41:32.574Z,5.80
2023-01-09T18:44:02.366Z,5.70
2023-01-09T18:46:32.390Z,5.70
2023-01-09T18:49:01.958Z,5.70
2023-01-09T18:51:32.562Z,5.70
2023-01-09T18:54:00.642Z,5.80
2023-01-09T18:56:28.818Z,5.70
2023-01-09T18:58:57.960Z,5.70
2023-01-09T19:01:28.313Z,5.70
2023-01-09T19:03:57.467Z,5.70
2023-01-09T19:06:25.750Z,5.60
2023-01-09T19:08:54.258Z,5.50
2023-01-09T19:11:22.581Z,5.60
2023-01-09T19:18:36.522Z,5.60
2023-01-09T19:21:09.847Z,5.60
2023-01-09T19:23:37.917Z,5.60
2023-01-09T19:26:08.477Z,5.60
2023-01-09T19:28:38.214Z,5.60
2023-01-09T19:31:06.298Z,5.60
2023-01-09T19:33:35.678Z,5.70
2023-01-09T19:36:03.814Z,5.60
2023-01-09T19:38:32.110Z,5.60
2023-01-09T19:41:09.026Z,5.60
2023-01-09T19:43:38.878Z,5.60
2023-01-09T19:46:09.202Z,5.50
2023-01-09T19:48:38.768Z,5.50
2023-01-09T19:51:08.153Z,5.50
2023-01-09T19:53:36.608Z,5.50
2023-01-09T19:56:08.545Z,5.50
2023-01-09T19:58:36.847Z,5.40
2023-01-09T20:01:09.043Z,5.40
2023-01-09T20:03:38.782Z,5.40
2023-01-09T20:06:07.591Z,5.30
2023-01-09T20:08:35.683Z,5.40
2023-01-09T20:11:05.462Z,5.30
2023-01-09T20:13:33.643Z,5.30
2023-01-09T20:16:02.247Z,5.20
2023-01-09T20:18:30.584Z,5.20
2023-01-09T20:21:00.022Z,5.20
2023-01-09T20:23:28.312Z,5.10
2023-01-09T20:25:58.446Z,5.10
2023-01-09T20:28:27.841Z,5.00
2023-01-09T20:30:55.907Z,5.00
2023-01-09T20:33:24.328Z,5.00
2023-01-09T20:35:52.588Z,5.10
2023-01-09T20:38:24.015Z,5.00
2023-01-09T20:40:56.206Z,5.00
2023-01-09T20:43:24.970Z,5.00
2023-01-09T20:45:53.088Z,5.00
2023-01-09T20:48:21.144Z,5.00
2023-01-09T20:50:49.236Z,5.10
2023-01-09T20:53:17.276Z,5.10
2023-01-09T20:55:46.752Z,5.10
2023-01-09T20:58:14.869Z,5.10
2023-01-09T21:00:42.863Z,5.10
2023-01-09T21:03:15.439Z,5.10
2023-01-09T21:05:44.060Z,5.00
2023-01-09T21:08:12.138Z,5.00
2023-01-09T21:10:40.242Z,5.10
2023-01-09T21:13:09.693Z,5.10
2023-01-09T21:15:38.333Z,5.00
2023-01-09T21:18:06.824Z,5.00
2023-01-09T21:20:34.855Z,5.00
2023-01-09T21:23:02.950Z,5.00
2023-01-09T21:25:31.012Z,4.80
2023-01-09T21:27:59.179Z,4.90
2023-01-09T21:30:28.557Z,4.80
2023-01-09T21:32:56.679Z,4.80
2023-01-09T21:35:24.876Z,4.80
2023-01-09T21:37:52.977Z,4.80
2023-01-09T21:40:21.049Z,4.80
2023-01-09T21:43:06.865Z,4.80
2023-01-09T21:45:56.488Z,4.70
2023-01-09T21:48:24.645Z,4.80
2023-01-09T21:50:52.645Z,4.80
2023-01-09T21:53:20.680Z,4.80
2023-01-09T21:55:48.701Z,4.80
2023-01-09T21:58:16.727Z,4.80
2023-01-09T22:00:46.199Z,4.80
2023-01-09T22:03:16.825Z,4.80
2023-01-09T22:05:45.497Z,4.90
2023-01-09T22:08:13.500Z,4.80
2023-01-09T22:10:41.773Z,4.80
2023-01-09T22:13:17.539Z,4.80
2023-01-09T22:15:48.155Z,4.80
2023-01-09T22:18:16.273Z,4.90
2023-01-09T22:20:45.778Z,4.90
2023-01-09T22:23:13.825Z,4.90
2023-01-09T22:25:42.607Z,4.90
2023-01-09T22:28:11.088Z,4.90
2023-01-09T22:30:40.289Z,4.90
2023-01-09T22:33:11.160Z,4.90
2023-01-09T22:35:41.475Z,4.90
2023-01-09T22:38:10.536Z,4.90
2023-01-09T22:40:38.791Z,4.90
2023-01-09T22:43:07.347Z,4.90
2023-01-09T22:45:35.467Z,4.80
2023-01-09T22:48:03.589Z,4.80
2023-01-09T22:50:33.142Z,4.90
2023-01-09T22:53:01.213Z,4.80
2023-01-09T22:55:29.232Z,4.90
2023-01-09T22:57:57.290Z,4.90
2023-01-09T23:00:25.372Z,4.90
2023-01-09T23:02:53.617Z,4.90
2023-01-09T23:05:21.788Z,5.00
2023-01-09T23:07:51.151Z,5.00
2023-01-09T23:10:19.264Z,5.00
2023-01-09T23:12:50.170Z,5.00
2023-01-09T23:15:18.214Z,5.00
2023-01-09T23:17:46.218Z,5.00
2023-01-09T23:20:14.274Z,5.00
2023-01-09T23:22:42.335Z,5.00
2023-01-09T23:25:14.254Z,5.00
2023-01-09T23:27:42.671Z,5.00
2023-01-09T23:30:11.399Z,5.00
2023-01-09T23:32:39.466Z,5.00
2023-01-09T23:35:07.748Z,5.00
2023-01-09T23:37:35.748Z,5.00
2023-01-09T23:40:04.093Z,4.90
2023-01-09T23:42:51.137Z,4.90
2023-01-09T23:45:19.171Z,4.90
2023-01-09T23:47:47.208Z,4.90
2023-01-09T23:50:15.345Z,4.80
2023-01-09T23:52:43.633Z,4.80
2023-01-09T23:55:11.999Z,4.80
2023-01-09T23:57:42.041Z,4.90
